Time;durP1;ratioP1;P1;durP2;ratioP2;P2;SDS_P1;SDS_P2;PMS_P1;PMS_P2;Temp;Humidity;BMP_temperature;BMP_pressure;BME280_temperature;BME280_humidity;BME280_pressure;Samples;Min_cycle;Max_cycle;Signal;HPM_P1;HPM_P2
2022/06/22 00:04:30;;;;;;;;;;;563.90;2432.00;;;;;;5074768;28;20369;-56
2022/06/22 00:06:58;;;;;;;;;;;563.90;2432.00;;;;;;5074960;28;19908;-57
2022/06/22 00:09:28;;;;;;;;;;;563.90;2432.00;;;;;;5073843;28;20301;-59
2022/06/22 00:11:55;;;;;;;;;;;564.00;2432.00;;;;;;5074959;28;19958;-59
2022/06/22 00:14:24;;;;;;;;;;;564.00;2432.00;;;;;;5074833;28;19920;-57
2022/06/22 00:16:52;;;;;;;;;;;563.80;2432.00;;;;;;5074432;28;20358;-59
2022/06/22 00:19:39;;;;;;;;;;;563.70;2432.00;;;;;;5074784;28;19910;-57
2022/06/22 00:22:05;;;;;;;;;;;563.50;2432.00;;;;;;5074306;28;19911;-57
2022/06/22 00:24:33;;;;;;;;;;;563.40;2432.00;;;;;;5074369;28;20267;-58
2022/06/22 00:27:06;;;;;;;;;;;563.20;2432.00;;;;;;5074490;28;19904;-58
2022/06/22 00:29:36;;;;;;;;;;;538.50;2406.40;;;;;;5074621;28;19999;-57
2022/06/22 00:32:12;;;;;;;;;;;563.30;2432.00;;;;;;5074104;28;19909;-58
2022/06/22 00:34:38;;;;;;;;;;;563.40;2432.00;;;;;;5074161;28;19919;-56
2022/06/22 00:37:13;;;;;;;;;;;563.50;2432.00;;;;;;5074336;28;19934;-57
2022/06/22 00:39:43;;;;;;;;;;;563.50;2432.00;;;;;;5074334;28;20354;-55
2022/06/22 00:42:14;;;;;;;;;;;563.60;2432.00;;;;;;5074042;28;19904;-60
2022/06/22 00:44:44;;;;;;;;;;;563.60;2432.00;;;;;;5074110;28;20046;-57
2022/06/22 00:47:18;;;;;;;;;;;563.70;2432.00;;;;;;5074016;28;20037;-57
2022/06/22 00:49:44;;;;;;;;;;;563.70;2432.00;;;;;;5074353;28;20346;-57
2022/06/22 00:52:10;;;;;;;;;;;563.70;2432.00;;;;;;5074091;28;19915;-57
2022/06/22 00:54:36;;;;;;;;;;;563.70;2432.00;;;;;;5074150;28;20005;-57
2022/06/22 00:57:13;;;;;;;;;;;563.60;2432.00;;;;;;5074048;28;19912;-55
2022/06/22 00:59:42;;;;;;;;;;;563.60;2432.00;;;;;;5073567;28;19927;-56
2022/06/22 01:02:12;;;;;;;;;;;563.60;2432.00;;;;;;5074145;28;19904;-56
2022/06/22 01:04:47;;;;;;;;;;;563.60;2432.00;;;;;;5073906;28;19917;-59
2022/06/22 01:07:15;;;;;;;;;;;563.50;2432.00;;;;;;5074629;28;19904;-54
2022/06/22 01:09:52;;;;;;;;;;;563.40;2432.00;;;;;;5073619;28;19904;-56
2022/06/22 01:12:26;;;;;;;;;;;538.50;2406.40;;;;;;5073830;28;19905;-57
2022/06/22 01:14:55;;;;;;;;;;;538.50;2406.40;;;;;;5073944;28;19908;-57
2022/06/22 01:17:27;;;;;;;;;;;538.30;2406.40;;;;;;5074127;28;20350;-57
2022/06/22 01:20:01;;;;;;;;;;;538.20;2406.40;;;;;;5074192;28;19904;-58
2022/06/22 01:22:45;;;;;;;;;;;538.10;2406.40;;;;;;5073461;28;19908;-57
2022/06/22 01:25:13;;;;;;;;;;;538.10;2406.40;;;;;;5073760;28;19919;-57
2022/06/22 01:27:43;;;;;;;;;;;538.00;2406.40;;;;;;5073565;28;19915;-57
2022/06/22 01:30:18;;;;;;;;;;;538.00;2406.40;;;;;;5073255;28;19915;-58
2022/06/22 01:32:44;;;;;;;;;;;538.00;2406.40;;;;;;5073315;28;19908;-56
2022/06/22 01:35:29;;;;;;;;;;;538.00;2406.40;;;;;;5073543;28;20006;-56
2022/06/22 01:37:55;;;;;;;;;;;537.80;2406.40;;;;;;5072799;28;19912;-58
2022/06/22 01:40:22;;;;;;;;;;;538.00;2406.40;;;;;;5073314;28;19904;-57
2022/06/22 01:42:48;;;;;;;;;;;538.00;2406.40;;;;;;5073578;28;19983;-57
2022/06/22 01:45:22;;;;;;;;;;;538.10;2406.40;;;;;;5070607;28;20286;-60
2022/06/22 01:47:52;;;;;;;;;;;538.10;2406.40;;;;;;5070486;28;19911;-56
2022/06/22 01:50:21;;;;;;;;;;;538.10;2406.40;;;;;;5070341;28;19934;-56
2022/06/22 01:53:05;;;;;;;;;;;538.10;2406.40;;;;;;5070288;28;20374;-56
2022/06/22 01:55:43;;;;;;;;;;;538.20;2406.40;;;;;;5070413;28;19904;-56
2022/06/22 01:58:27;;;;;;;;;;;538.00;2406.40;;;;;;5069834;28;19908;-56
2022/06/22 02:00:59;;;;;;;;;;;537.70;2406.40;;;;;;5070111;28;20419;-56
2022/06/22 02:03:37;;;;;;;;;;;537.60;2406.40;;;;;;5070657;28;19904;-55
2022/06/22 02:07:44;;;;;;;;;;;537.60;2406.40;;;;;;5070407;28;19905;-56
2022/06/22 02:09:00;;;;;;;;;;;537.60;2406.40;;;;;;5070155;28;19957;-58
2022/06/22 02:11:28;;;;;;;;;;;537.60;2406.40;;;;;;5070005;28;19908;-57
2022/06/22 02:13:56;;;;;;;;;;;537.60;2406.40;;;;;;5070399;28;19912;-56
2022/06/22 02:16:46;;;;;;;;;;;512.80;2380.80;;;;;;5070192;28;19908;-57
2022/06/22 02:19:13;;;;;;;;;;;512.80;2380.80;;;;;;5056875;28;19915;-57
2022/06/22 02:21:52;;;;;;;;;;;512.70;2380.80;;;;;;5070231;28;20022;-57
2022/06/22 02:24:29;;;;;;;;;;;512.60;2380.80;;;;;;5070042;28;19949;-57
2022/06/22 02:26:58;;;;;;;;;;;512.60;2380.80;;;;;;5070132;28;19905;-58
2022/06/22 02:29:26;;;;;;;;;;;512.60;2380.80;;;;;;5070077;28;19915;-57
2022/06/22 02:31:53;;;;;;;;;;;512.40;2380.80;;;;;;5070023;28;20354;-57
2022/06/22 02:34:19;;;;;;;;;;;512.30;2380.80;;;;;;5073484;28;19913;-57
2022/06/22 02:36:46;;;;;;;;;;;512.40;2380.80;;;;;;5073776;28;19905;-57
2022/06/22 02:39:13;;;;;;;;;;;512.60;2380.80;;;;;;5073670;28;19912;-56
2022/06/22 02:44:32;;;;;;;;;;;512.50;2380.80;;;;;;5074165;28;19912;-57
2022/06/22 02:47:14;;;;;;;;;;;512.70;2380.80;;;;;;5073407;28;19904;-59
2022/06/22 02:49:46;;;;;;;;;;;512.60;2380.80;;;;;;5073346;28;19987;-58
2022/06/22 02:52:13;;;;;;;;;;;512.80;2380.80;;;;;;5073521;28;19905;-57
2022/06/22 02:54:44;;;;;;;;;;;512.80;2380.80;;;;;;5073233;28;19918;-57
2022/06/22 02:57:10;;;;;;;;;;;512.80;2380.80;;;;;;5073133;28;19966;-56
2022/06/22 02:59:35;;;;;;;;;;;512.60;2380.80;;;;;;5072865;28;19920;-58
2022/06/22 03:02:01;;;;;;;;;;;512.50;2380.80;;;;;;5073248;28;19908;-58
2022/06/22 03:04:28;;;;;;;;;;;512.40;2380.80;;;;;;5073048;28;19905;-59
2022/06/22 03:06:54;;;;;;;;;;;512.30;2380.80;;;;;;5073223;28;19928;-57
2022/06/22 03:09:20;;;;;;;;;;;512.30;2380.80;;;;;;5073480;28;20355;-57
2022/06/22 03:11:48;;;;;;;;;;;512.30;2380.80;;;;;;5072939;28;19911;-57
2022/06/22 03:14:40;;;;;;;;;;;512.30;2380.80;;;;;;5073149;28;19920;-57
2022/06/22 03:17:07;;;;;;;;;;;512.40;2380.80;;;;;;4971797;28;19906;-57
2022/06/22 03:19:39;;;;;;;;;;;512.50;2380.80;;;;;;4972069;28;19957;-58
2022/06/22 03:22:04;;;;;;;;;;;512.70;2380.80;;;;;;4972001;28;19950;-58
2022/06/22 03:24:33;;;;;;;;;;;512.60;2380.80;;;;;;4972088;28;19913;-57
2022/06/22 03:27:01;;;;;;;;;;;512.70;2380.80;;;;;;4971639;28;19906;-56
2022/06/22 03:29:34;;;;;;;;;;;537.60;2406.40;;;;;;4971774;28;19968;-58
2022/06/22 03:32:23;;;;;;;;;;;537.80;2406.40;;;;;;4971636;28;20379;-56
2022/06/22 03:34:57;;;;;;;;;;;538.00;2406.40;;;;;;4971847;28;20004;-57
2022/06/22 03:37:34;;;;;;;;;;;538.00;2406.40;;;;;;4971818;28;19906;-57
2022/06/22 03:40:03;;;;;;;;;;;538.00;2406.40;;;;;;4971836;28;20273;-57
2022/06/22 03:42:31;;;;;;;;;;;538.00;2406.40;;;;;;4971535;28;19906;-57
2022/06/22 03:45:02;;;;;;;;;;;538.00;2406.40;;;;;;4971330;28;20292;-56
2022/06/22 03:47:59;;;;;;;;;;;538.10;2406.40;;;;;;4971319;28;20256;-56
2022/06/22 03:50:37;;;;;;;;;;;538.10;2406.40;;;;;;4932853;29;19980;-57
2022/06/22 03:53:03;;;;;;;;;;;538.30;2406.40;;;;;;4945461;28;19917;-56
2022/06/22 03:55:30;;;;;;;;;;;563.20;2432.00;;;;;;5010237;28;19988;-57
2022/06/22 03:57:57;;;;;;;;;;;563.40;2432.00;;;;;;5010010;28;19909;-56
2022/06/22 04:00:23;;;;;;;;;;;563.60;2432.00;;;;;;5010120;28;19922;-56
2022/06/22 04:02:48;;;;;;;;;;;563.90;2432.00;;;;;;5010089;28;19905;-56
2022/06/22 04:05:16;;;;;;;;;;;564.00;2432.00;;;;;;5010224;28;19906;-59
2022/06/22 04:07:41;;;;;;;;;;;588.90;2432.00;;;;;;5010075;28;19940;-56
2022/06/22 04:10:13;;;;;;;;;;;589.00;2432.00;;;;;;5009945;28;19905;-59
2022/06/22 04:12:40;;;;;;;;;;;564.00;2432.00;;;;;;5009765;28;19952;-57
2022/06/22 04:15:14;;;;;;;;;;;563.90;2432.00;;;;;;5009755;28;20392;-58
2022/06/22 04:17:46;;;;;;;;;;;564.00;2432.00;;;;;;5009601;28;19906;-57
2022/06/22 04:20:21;;;;;;;;;;;564.00;2432.00;;;;;;5009930;28;19909;-55
2022/06/22 04:22:49;;;;;;;;;;;588.90;2432.00;;;;;;5009801;28;20487;-59
2022/06/22 04:25:20;;;;;;;;;;;589.10;2432.00;;;;;;5017585;28;19947;-57
2022/06/22 04:27:48;;;;;;;;;;;589.50;2432.00;;;;;;5051517;28;19916;-59
2022/06/22 04:30:19;;;;;;;;;;;614.50;2406.40;;;;;;5051434;28;20295;-56
2022/06/22 04:33:00;;;;;;;;;;;615.10;2329.60;;;;;;5051237;28;19908;-58
2022/06/22 04:35:31;;;;;;;;;;;666.40;2150.40;;;;;;5051273;28;19909;-58
2022/06/22 04:38:20;;;;;;;;;;;691.60;2022.40;;;;;;5051204;28;20042;-59
2022/06/22 04:40:45;;;;;;;;;;;665.80;2124.80;;;;;;4975831;28;19909;-58
2022/06/22 04:43:11;;;;;;;;;;;640.60;2201.60;;;;;;4989404;28;20000;-57
2022/06/22 04:45:38;;;;;;;;;;;691.20;2124.80;;;;;;4988886;28;19996;-58
2022/06/22 04:48:09;;;;;;;;;;;717.70;1894.40;;;;;;4989382;28;19906;-57
2022/06/22 04:50:36;;;;;;;;;;;768.00;1766.40;;;;;;4989626;28;19906;-60
2022/06/22 04:53:02;;;;;;;;;;;794.00;1664.00;;;;;;4989598;28;19910;-60
2022/06/22 04:55:28;;;;;;;;;;;819.80;1510.40;;;;;;4989074;28;20000;-57
2022/06/22 04:57:56;;;;;;;;;;;845.40;1484.80;;;;;;4989505;28;19910;-60
2022/06/22 05:00:25;;;;;;;;;;;845.70;1459.20;;;;;;4989372;28;19925;-56
2022/06/22 05:02:54;;;;;;;;;;;845.20;1459.20;;;;;;4989645;28;19905;-58
2022/06/22 05:05:22;;;;;;;;;;;820.00;1484.80;;;;;;4989590;28;19905;-57
2022/06/22 05:08:06;;;;;;;;;;;870.50;1408.00;;;;;;4989403;28;19933;-56
2022/06/22 05:10:41;;;;;;;;;;;871.10;1356.80;;;;;;4989450;28;19906;-59
2022/06/22 05:13:27;;;;;;;;;;;871.20;1382.40;;;;;;4989245;28;19914;-57
2022/06/22 05:15:57;;;;;;;;;;;896.50;1305.60;;;;;;4989391;28;19906;-59
2022/06/22 05:18:30;;;;;;;;;;;921.90;1305.60;;;;;;5051459;28;19905;-58
2022/06/22 05:21:04;;;;;;;;;;;896.90;1305.60;;;;;;5070589;28;19904;-60
2022/06/22 05:23:31;;;;;;;;;;;845.40;1382.40;;;;;;5070600;28;19908;-58
2022/06/22 05:25:59;;;;;;;;;;;819.80;1382.40;;;;;;5070426;28;19908;-58
2022/06/22 05:28:32;;;;;;;;;;;794.00;1433.60;;;;;;5070506;28;19909;-60
2022/06/22 05:31:13;;;;;;;;;;;793.70;1459.20;;;;;;5070545;28;19909;-58
2022/06/22 05:33:41;;;;;;;;;;;793.70;1459.20;;;;;;5070278;28;19912;-57
2022/06/22 05:36:11;;;;;;;;;;;793.60;1484.80;;;;;;5070357;28;20339;-57
2022/06/22 05:38:38;;;;;;;;;;;768.40;1510.40;;;;;;5070398;28;20352;-57
2022/06/22 05:41:04;;;;;;;;;;;743.30;1561.60;;;;;;5070421;28;19950;-57
2022/06/22 05:43:31;;;;;;;;;;;743.00;1536.00;;;;;;5070674;28;19965;-59
2022/06/22 05:45:57;;;;;;;;;;;819.40;1433.60;;;;;;5070281;28;20350;-58
2022/06/22 05:48:26;;;;;;;;;;;845.30;1331.20;;;;;;5070422;28;19905;-60
2022/06/22 05:50:57;;;;;;;;;;;819.60;1356.80;;;;;;5070584;28;19998;-57
2022/06/22 05:53:22;;;;;;;;;;;794.10;1408.00;;;;;;5070447;28;19991;-58
2022/06/22 05:55:48;;;;;;;;;;;819.30;1356.80;;;;;;5070136;28;20358;-57
2022/06/22 05:58:23;;;;;;;;;;;768.90;1408.00;;;;;;5069835;28;19908;-59
2022/06/22 06:00:50;;;;;;;;;;;793.80;1433.60;;;;;;5070210;28;19923;-56
2022/06/22 06:03:21;;;;;;;;;;;845.40;1331.20;;;;;;5070166;28;19905;-57
2022/06/22 06:05:52;;;;;;;;;;;819.80;1356.80;;;;;;5070165;28;19905;-55
2022/06/22 06:08:29;;;;;;;;;;;768.60;1408.00;;;;;;5072656;28;19904;-56
2022/06/22 06:10:54;;;;;;;;;;;742.80;1484.80;;;;;;5074517;28;19939;-59
2022/06/22 06:13:38;;;;;;;;;;;717.40;1536.00;;;;;;5056331;28;19940;-56
2022/06/22 06:16:07;;;;;;;;;;;692.10;1561.60;;;;;;5074270;28;20355;-58
2022/06/22 06:18:35;;;;;;;;;;;691.80;1536.00;;;;;;5074052;28;19904;-56
2022/06/22 06:21:03;;;;;;;;;;;691.70;1587.20;;;;;;5073926;28;19940;-55
2022/06/22 06:23:35;;;;;;;;;;;691.30;1638.40;;;;;;5073958;28;19904;-57
2022/06/22 06:28:50;;;;;;;;;;;691.30;1689.60;;;;;;5073666;28;20329;-56
2022/06/22 06:31:27;;;;;;;;;;;691.40;1689.60;;;;;;5073474;28;19934;-57
2022/06/22 06:33:54;;;;;;;;;;;691.90;1638.40;;;;;;5073850;28;19916;-60
2022/06/22 06:36:31;;;;;;;;;;;717.20;1587.20;;;;;;5073773;28;19904;-57
2022/06/22 06:39:02;;;;;;;;;;;793.60;1484.80;;;;;;5073600;28;19916;-59
2022/06/22 06:41:38;;;;;;;;;;;819.70;1356.80;;;;;;5073546;28;19908;-56
2022/06/22 06:44:25;;;;;;;;;;;922.30;1152.00;;;;;;5073612;28;19904;-56
2022/06/22 06:47:03;;;;;;;;;;;973.00;1075.20;;;;;;5073596;28;20346;-58
2022/06/22 06:49:33;;;;;;;;;;;921.70;1152.00;;;;;;5073298;28;19999;-57
2022/06/22 06:52:01;;;;;;;;;;;999.20;998.40;;;;;;5073261;28;19927;-60
2022/06/22 06:54:35;;;;;;;;;;;973.40;1024.00;;;;;;5073037;28;19986;-59
2022/06/22 06:57:10;;;;;;;;;;;1024.70;947.20;;;;;;5073320;28;19904;-57
2022/06/22 06:59:39;;;;;;;;;;;1024.00;947.20;;;;;;5072975;28;19920;-57
2022/06/22 07:02:11;;;;;;;;;;;999.30;947.20;;;;;;5073343;28;19957;-57
2022/06/22 07:04:37;;;;;;;;;;;1049.90;921.60;;;;;;5073260;28;19942;-57
2022/06/22 07:07:13;;;;;;;;;;;972.90;998.40;;;;;;5073162;28;20286;-57
2022/06/22 07:09:40;;;;;;;;;;;921.60;998.40;;;;;;5072899;28;19926;-57
2022/06/22 07:12:32;;;;;;;;;;;844.90;1075.20;;;;;;5072972;28;20370;-57
2022/06/22 07:15:00;;;;;;;;;;;794.50;1152.00;;;;;;4971973;28;20360;-57
2022/06/22 07:17:26;;;;;;;;;;;793.70;1152.00;;;;;;4971908;28;19929;-57
2022/06/22 07:19:54;;;;;;;;;;;768.00;1203.20;;;;;;4971708;28;20380;-56
2022/06/22 07:22:19;;;;;;;;;;;742.60;1254.40;;;;;;4972015;28;19943;-58
2022/06/22 07:24:53;;;;;;;;;;;742.40;1280.00;;;;;;4971999;28;19957;-57
2022/06/22 07:27:18;;;;;;;;;;;742.40;1305.60;;;;;;4971723;28;20379;-56
2022/06/22 07:29:54;;;;;;;;;;;742.50;1356.80;;;;;;4971974;28;19910;-55
2022/06/22 07:32:20;;;;;;;;;;;742.40;1331.20;;;;;;4971661;28;20415;-60
2022/06/22 07:34:58;;;;;;;;;;;717.00;1305.60;;;;;;4971713;28;19938;-56
2022/06/22 07:37:26;;;;;;;;;;;717.40;1331.20;;;;;;4971937;28;20317;-57
2022/06/22 07:39:54;;;;;;;;;;;717.60;1305.60;;;;;;4971955;28;20285;-56
2022/06/22 07:42:20;;;;;;;;;;;742.90;1331.20;;;;;;4971624;28;20446;-55
2022/06/22 07:44:46;;;;;;;;;;;743.00;1280.00;;;;;;4971458;28;19941;-56
2022/06/22 07:47:22;;;;;;;;;;;743.00;1228.80;;;;;;4971641;28;19912;-55
2022/06/22 07:49:51;;;;;;;;;;;742.90;1280.00;;;;;;4971534;28;19906;-56
2022/06/22 07:52:18;;;;;;;;;;;742.50;1305.60;;;;;;5044918;28;19908;-57
2022/06/22 07:54:43;;;;;;;;;;;742.40;1331.20;;;;;;5072381;28;19912;-61
2022/06/22 07:57:12;;;;;;;;;;;742.50;1280.00;;;;;;5072036;28;20325;-57
2022/06/22 07:59:42;;;;;;;;;;;742.80;1280.00;;;;;;5071878;28;19924;-57
2022/06/22 08:02:16;;;;;;;;;;;768.10;1228.80;;;;;;5071836;28;19904;-57
2022/06/22 08:04:46;;;;;;;;;;;768.10;1203.20;;;;;;5072332;28;19908;-56
2022/06/22 08:07:24;;;;;;;;;;;768.60;1177.60;;;;;;5072248;28;19912;-56
2022/06/22 08:09:56;;;;;;;;;;;793.70;1177.60;;;;;;5071919;28;19912;-57
2022/06/22 08:12:29;;;;;;;;;;;742.80;1203.20;;;;;;5072022;28;19911;-60
2022/06/22 08:14:55;;;;;;;;;;;717.50;1228.80;;;;;;5072105;28;19919;-60
2022/06/22 08:17:40;;;;;;;;;;;742.50;1254.40;;;;;;5072023;28;19905;-60
2022/06/22 08:20:06;;;;;;;;;;;742.60;1228.80;;;;;;5071695;28;20366;-61
2022/06/22 08:22:32;;;;;;;;;;;742.60;1280.00;;;;;;5071673;28;19905;-57
2022/06/22 08:24:58;;;;;;;;;;;742.70;1254.40;;;;;;5071288;28;19912;-57
2022/06/22 08:27:25;;;;;;;;;;;768.20;1228.80;;;;;;5071634;28;19908;-61
2022/06/22 08:29:51;;;;;;;;;;;793.60;1254.40;;;;;;5070715;28;20343;-57
2022/06/22 08:32:30;;;;;;;;;;;793.60;1254.40;;;;;;5071299;28;20006;-56
2022/06/22 08:34:58;;;;;;;;;;;768.30;1254.40;;;;;;5071199;28;20410;-57
2022/06/22 08:37:35;;;;;;;;;;;793.80;1228.80;;;;;;5071338;28;19911;-57
2022/06/22 08:40:07;;;;;;;;;;;768.50;1203.20;;;;;;5071549;28;19904;-61
2022/06/22 08:42:52;;;;;;;;;;;768.50;1254.40;;;;;;5071301;28;20355;-57
2022/06/22 08:45:24;;;;;;;;;;;768.60;1254.40;;;;;;5071399;28;20317;-57
2022/06/22 08:47:52;;;;;;;;;;;794.00;1280.00;;;;;;5071039;28;19908;-59
2022/06/22 08:50:21;;;;;;;;;;;794.20;1280.00;;;;;;5071088;28;19931;-56
2022/06/22 08:52:46;;;;;;;;;;;768.60;1254.40;;;;;;5071132;28;19923;-58
2022/06/22 08:55:15;;;;;;;;;;;768.10;1280.00;;;;;;5071245;28;20270;-57
2022/06/22 08:57:40;;;;;;;;;;;743.00;1305.60;;;;;;5070652;28;19908;-57
2022/06/22 09:00:06;;;;;;;;;;;768.20;1305.60;;;;;;5070700;28;19932;-57
2022/06/22 09:02:50;;;;;;;;;;;768.40;1280.00;;;;;;5070892;28;20000;-58
2022/06/22 09:05:24;;;;;;;;;;;768.40;1254.40;;;;;;5070710;28;19905;-56
2022/06/22 09:08:08;;;;;;;;;;;768.40;1228.80;;;;;;5070988;28;19904;-60
2022/06/22 09:10:37;;;;;;;;;;;768.30;1254.40;;;;;;5070846;28;19908;-61
2022/06/22 09:13:21;;;;;;;;;;;742.70;1228.80;;;;;;5070759;28;20002;-57
2022/06/22 09:16:14;;;;;;;;;;;743.00;1254.40;;;;;;5070731;28;19908;-56
2022/06/22 09:18:58;;;;;;;;;;;717.60;1228.80;;;;;;5070980;28;19911;-58
2022/06/22 09:21:35;;;;;;;;;;;716.80;1280.00;;;;;;5070767;28;19927;-57
2022/06/22 09:24:07;;;;;;;;;;;717.20;1228.80;;;;;;5070665;28;19987;-61
2022/06/22 09:26:38;;;;;;;;;;;717.30;1254.40;;;;;;5070571;28;19911;-58
2022/06/22 09:29:07;;;;;;;;;;;717.70;1280.00;;;;;;5070345;28;19908;-56
2022/06/22 09:31:44;;;;;;;;;;;742.40;1254.40;;;;;;5070467;28;19909;-56
2022/06/22 09:34:28;;;;;;;;;;;717.30;1254.40;;;;;;5070260;28;19923;-62
2022/06/22 09:36:56;;;;;;;;;;;717.10;1254.40;;;;;;5070467;28;19904;-56
2022/06/22 09:39:40;;;;;;;;;;;717.40;1254.40;;;;;;5070706;28;19904;-56
2022/06/22 09:42:09;;;;;;;;;;;742.80;1254.40;;;;;;5070252;28;19904;-57
2022/06/22 09:44:34;;;;;;;;;;;742.70;1203.20;;;;;;5070483;28;19904;-56
2022/06/22 09:47:25;;;;;;;;;;;743.10;1203.20;;;;;;5070520;28;19949;-55
2022/06/22 09:50:10;;;;;;;;;;;768.10;1203.20;;;;;;5070305;28;20362;-59
2022/06/22 09:52:46;;;;;;;;;;;768.40;1203.20;;;;;;5070039;28;19958;-57
2022/06/22 09:58:23;;;;;;;;;;;743.10;1203.20;;;;;;5070067;28;19962;-56
2022/06/22 10:01:08;;;;;;;;;;;768.40;1177.60;;;;;;5070104;28;19909;-59
2022/06/22 10:03:45;;;;;;;;;;;743.30;1203.20;;;;;;5070103;28;19982;-57
2022/06/22 10:06:16;;;;;;;;;;;717.50;1228.80;;;;;;5070085;28;20049;-56
2022/06/22 10:08:41;;;;;;;;;;;717.50;1254.40;;;;;;5070059;28;19919;-56
2022/06/22 10:11:19;;;;;;;;;;;717.50;1254.40;;;;;;5070031;28;19904;-56
2022/06/22 10:13:44;;;;;;;;;;;717.70;1254.40;;;;;;5070032;28;19919;-61
2022/06/22 10:16:28;;;;;;;;;;;742.60;1280.00;;;;;;5070028;28;19908;-58
2022/06/22 10:18:58;;;;;;;;;;;742.80;1280.00;;;;;;5070187;28;19908;-56
2022/06/22 10:21:35;;;;;;;;;;;717.20;1254.40;;;;;;5069996;28;19904;-56
2022/06/22 10:24:10;;;;;;;;;;;717.00;1254.40;;;;;;5069860;28;19905;-57
2022/06/22 10:26:41;;;;;;;;;;;717.20;1254.40;;;;;;5069870;28;19915;-57
2022/06/22 10:29:25;;;;;;;;;;;717.50;1254.40;;;;;;5069640;28;19913;-56
2022/06/22 10:31:54;;;;;;;;;;;717.10;1280.00;;;;;;5069893;28;19908;-56
2022/06/22 10:34:52;;;;;;;;;;;717.10;1280.00;;;;;;5069672;28;20018;-56
2022/06/22 10:37:17;;;;;;;;;;;717.10;1254.40;;;;;;4968724;28;20040;-55
2022/06/22 10:39:49;;;;;;;;;;;717.60;1305.60;;;;;;4969230;28;20379;-61
2022/06/22 10:45:22;;;;;;;;;;;716.90;1280.00;;;;;;4969249;28;19945;-59
2022/06/22 10:48:06;;;;;;;;;;;717.30;1280.00;;;;;;4969062;28;19906;-56
2022/06/22 10:50:41;;;;;;;;;;;716.90;1280.00;;;;;;4968966;28;20344;-56
2022/06/22 10:53:25;;;;;;;;;;;717.20;1305.60;;;;;;4969232;28;20292;-56
2022/06/22 10:55:57;;;;;;;;;;;716.80;1382.40;;;;;;4972726;28;20313;-61
2022/06/22 10:58:30;;;;;;;;;;;716.90;1356.80;;;;;;4972239;28;19910;-56
2022/06/22 11:01:13;;;;;;;;;;;692.10;1331.20;;;;;;4972374;28;19910;-57
2022/06/22 11:03:41;;;;;;;;;;;691.70;1356.80;;;;;;4970334;28;19929;-57
2022/06/22 11:06:16;;;;;;;;;;;691.90;1382.40;;;;;;4970300;28;19961;-56
2022/06/22 11:08:41;;;;;;;;;;;717.00;1459.20;;;;;;4970538;28;19906;-58
2022/06/22 11:11:13;;;;;;;;;;;717.30;1382.40;;;;;;4970240;28;19917;-58
2022/06/22 11:13:45;;;;;;;;;;;717.30;1331.20;;;;;;5052088;28;20281;-57
2022/06/22 11:16:20;;;;;;;;;;;717.40;1331.20;;;;;;5070924;28;20008;-56
2022/06/22 11:19:01;;;;;;;;;;;717.60;1382.40;;;;;;5071404;28;19923;-56
2022/06/22 11:21:27;;;;;;;;;;;717.70;1331.20;;;;;;5071169;28;19948;-56
2022/06/22 11:23:52;;;;;;;;;;;717.50;1382.40;;;;;;5071449;28;20372;-56
2022/06/22 11:32:09;;;;;;;;;;;717.10;1382.40;;;;;;5071586;28;19943;-56
2022/06/22 11:34:52;;;;;;;;;;;716.90;1382.40;;;;;;5073217;28;19912;-62
2022/06/22 11:37:37;;;;;;;;;;;691.90;1408.00;;;;;;5072571;28;19913;-56
2022/06/22 11:40:25;;;;;;;;;;;716.80;1408.00;;;;;;5072708;28;19912;-56
2022/06/22 11:43:06;;;;;;;;;;;717.10;1484.80;;;;;;5072779;28;19911;-56
2022/06/22 11:46:07;;;;;;;;;;;717.50;1459.20;;;;;;5072718;28;19910;-56
2022/06/22 11:48:42;;;;;;;;;;;717.70;1433.60;;;;;;5019433;28;19912;-57
2022/06/22 11:51:07;;;;;;;;;;;717.40;1408.00;;;;;;5072421;28;19905;-57
2022/06/22 11:53:33;;;;;;;;;;;742.40;1510.40;;;;;;5072349;28;20278;-61
2022/06/22 11:56:01;;;;;;;;;;;742.60;1484.80;;;;;;5072068;28;19905;-60
2022/06/22 11:58:50;;;;;;;;;;;742.60;1459.20;;;;;;5071816;28;19909;-57
2022/06/22 12:01:35;;;;;;;;;;;742.80;1459.20;;;;;;5072022;28;19953;-57
2022/06/22 12:04:00;;;;;;;;;;;742.90;1408.00;;;;;;5071771;28;19998;-56
2022/06/22 12:06:40;;;;;;;;;;;742.90;1459.20;;;;;;5071075;28;19997;-57
2022/06/22 12:09:09;;;;;;;;;;;742.80;1433.60;;;;;;5071957;28;19904;-57
2022/06/22 12:11:34;;;;;;;;;;;743.00;1433.60;;;;;;5071878;28;19912;-61
2022/06/22 12:16:49;;;;;;;;;;;743.00;1459.20;;;;;;5071916;28;19938;-56
2022/06/22 12:19:33;;;;;;;;;;;743.00;1459.20;;;;;;5053885;28;20247;-56
2022/06/22 12:21:59;;;;;;;;;;;743.00;1459.20;;;;;;5071407;28;19904;-56
2022/06/22 12:24:35;;;;;;;;;;;743.10;1433.60;;;;;;5071652;28;19999;-56
2022/06/22 12:27:19;;;;;;;;;;;743.10;1459.20;;;;;;5071350;28;19911;-57
2022/06/22 12:30:03;;;;;;;;;;;743.30;1433.60;;;;;;5071523;28;20003;-60
2022/06/22 12:32:46;;;;;;;;;;;743.30;1459.20;;;;;;5071213;28;19911;-56
2022/06/22 12:35:16;;;;;;;;;;;743.30;1433.60;;;;;;5071384;28;19923;-56
2022/06/22 12:37:50;;;;;;;;;;;742.90;1459.20;;;;;;5071304;28;19908;-56
2022/06/22 12:40:21;;;;;;;;;;;742.80;1459.20;;;;;;5071390;28;19904;-56
2022/06/22 12:42:59;;;;;;;;;;;743.00;1484.80;;;;;;5071376;28;19908;-57
2022/06/22 12:45:43;;;;;;;;;;;743.00;1484.80;;;;;;5071401;28;19904;-61
2022/06/22 12:48:25;;;;;;;;;;;743.10;1510.40;;;;;;5071159;28;19904;-56
2022/06/22 12:51:11;;;;;;;;;;;743.30;1484.80;;;;;;5071423;28;19911;-61
2022/06/22 12:53:49;;;;;;;;;;;743.30;1459.20;;;;;;5070191;28;19922;-57
2022/06/22 12:56:16;;;;;;;;;;;743.30;1510.40;;;;;;5071373;28;19905;-59
2022/06/22 12:58:45;;;;;;;;;;;743.30;1510.40;;;;;;5070897;28;20385;-56
2022/06/22 13:01:11;;;;;;;;;;;743.30;1484.80;;;;;;5071252;28;20426;-61
2022/06/22 13:04:03;;;;;;;;;;;768.00;1459.20;;;;;;5070658;28;19952;-56
2022/06/22 13:06:30;;;;;;;;;;;768.10;1484.80;;;;;;5065748;28;19908;-57
2022/06/22 13:08:57;;;;;;;;;;;768.10;1433.60;;;;;;5070964;28;19904;-60
2022/06/22 13:11:24;;;;;;;;;;;768.10;1433.60;;;;;;5071206;28;19904;-56
2022/06/22 13:14:04;;;;;;;;;;;768.10;1459.20;;;;;;5070703;28;19919;-58
2022/06/22 13:16:37;;;;;;;;;;;743.10;1459.20;;;;;;5070176;28;19904;-56
2022/06/22 13:19:06;;;;;;;;;;;743.30;1408.00;;;;;;5070703;28;20251;-56
2022/06/22 13:21:41;;;;;;;;;;;768.10;1459.20;;;;;;5070867;28;19943;-57
2022/06/22 13:24:15;;;;;;;;;;;768.20;1561.60;;;;;;5068134;28;19999;-57
2022/06/22 13:26:54;;;;;;;;;;;768.40;1484.80;;;;;;5069095;28;20417;-56
2022/06/22 13:29:43;;;;;;;;;;;768.00;1408.00;;;;;;5068887;28;20259;-57
2022/06/22 13:32:10;;;;;;;;;;;743.30;1433.60;;;;;;5069015;28;19912;-58
2022/06/22 13:34:45;;;;;;;;;;;768.20;1510.40;;;;;;5068964;28;19923;-57
2022/06/22 13:37:17;;;;;;;;;;;768.10;1433.60;;;;;;5068601;28;19934;-61
2022/06/22 13:39:43;;;;;;;;;;;768.10;1510.40;;;;;;5068965;28;19958;-56
2022/06/22 13:42:08;;;;;;;;;;;768.20;1561.60;;;;;;5068695;28;19908;-56
2022/06/22 13:44:37;;;;;;;;;;;768.10;1510.40;;;;;;5068977;28;19908;-57
2022/06/22 13:47:05;;;;;;;;;;;768.40;1484.80;;;;;;5068902;28;20281;-56
2022/06/22 13:50:16;;;;;;;;;;;768.40;1484.80;;;;;;5068118;28;20479;-60
2022/06/22 13:52:43;;;;;;;;;;;768.30;1484.80;;;;;;5068685;28;19910;-57
2022/06/22 13:55:28;;;;;;;;;;;768.60;1408.00;;;;;;5068513;28;19908;-56
2022/06/22 13:58:19;;;;;;;;;;;768.20;1433.60;;;;;;5068797;28;19919;-56
2022/06/22 14:00:48;;;;;;;;;;;768.30;1408.00;;;;;;5063769;28;20385;-56
2022/06/22 14:03:16;;;;;;;;;;;768.10;1433.60;;;;;;5067957;28;20003;-57
2022/06/22 14:05:50;;;;;;;;;;;768.10;1408.00;;;;;;5069075;28;20314;-57
2022/06/22 14:08:39;;;;;;;;;;;743.10;1433.60;;;;;;5068215;28;19987;-57
2022/06/22 14:11:15;;;;;;;;;;;743.30;1433.60;;;;;;5068673;28;19913;-57
2022/06/22 14:13:47;;;;;;;;;;;768.20;1433.60;;;;;;5068288;28;19954;-56
2022/06/22 14:16:19;;;;;;;;;;;768.50;1408.00;;;;;;5068083;28;19910;-57
2022/06/22 14:18:49;;;;;;;;;;;768.00;1433.60;;;;;;5068369;28;20002;-58
2022/06/22 14:21:21;;;;;;;;;;;768.40;1433.60;;;;;;5068450;28;20635;-56
2022/06/22 14:23:48;;;;;;;;;;;768.90;1433.60;;;;;;5068158;28;20427;-56
2022/06/22 14:26:13;;;;;;;;;;;793.60;1433.60;;;;;;5068375;28;19904;-56
2022/06/22 14:28:59;;;;;;;;;;;768.80;1382.40;;;;;;5068894;28;19958;-57
2022/06/22 14:31:33;;;;;;;;;;;793.70;1408.00;;;;;;5071538;28;19974;-62
2022/06/22 14:34:19;;;;;;;;;;;794.00;1408.00;;;;;;5071904;28;19920;-59
2022/06/22 14:36:51;;;;;;;;;;;794.10;1382.40;;;;;;5072125;28;19911;-59